createdAt,value
2018-04-02T00:00:59.496Z,0
2018-04-02T00:01:59.457Z,0
2018-04-02T00:02:59.438Z,0
2018-04-02T00:03:59.168Z,0
2018-04-02T00:04:59.385Z,0
2018-04-02T00:05:59.353Z,0
2018-04-02T00:06:59.330Z,0
2018-04-02T00:07:59.297Z,0
2018-04-02T00:08:59.424Z,0
2018-04-02T00:09:59.238Z,0
2018-04-02T00:10:59.222Z,0
2018-04-02T00:11:58.685Z,0
2018-04-02T00:12:58.915Z,0
2018-04-02T00:13:59.136Z,0
2018-04-02T00:14:58.866Z,0
2018-04-02T00:15:58.844Z,0
2018-04-02T00:16:58.807Z,0
2018-04-02T00:17:58.525Z,0
2018-04-02T00:18:58.500Z,0
2018-04-02T00:19:58.474Z,0
2018-04-02T00:20:58.696Z,0
2018-04-02T00:21:58.929Z,0
2018-04-02T00:22:58.642Z,0
2018-04-02T00:23:58.638Z,0
2018-04-02T00:24:58.843Z,0
2018-04-02T00:25:58.804Z,0
2018-04-02T00:26:58.535Z,0
2018-04-02T00:27:58.504Z,0
2018-04-02T00:28:58.728Z,0
2018-04-02T00:29:58.456Z,0
2018-04-02T00:30:58.180Z,0
2018-04-02T00:31:58.644Z,0
2018-04-02T00:32:58.371Z,0
2018-04-02T00:33:58.583Z,0
2018-04-02T00:34:58.562Z,0
2018-04-02T00:35:58.543Z,0
2018-04-02T00:36:58.506Z,0
2018-04-02T00:37:58.483Z,0
2018-04-02T00:38:58.205Z,0
2018-04-02T00:39:58.422Z,0
2018-04-02T00:40:58.388Z,0
2018-04-02T00:41:58.121Z,0
2018-04-02T00:42:57.855Z,0
2018-04-02T00:43:58.313Z,0
2018-04-02T00:44:58.034Z,0
2018-04-02T00:45:58.257Z,0
2018-04-02T00:46:57.984Z,0
2018-04-02T00:47:58.226Z,0
2018-04-02T00:48:58.041Z,0
2018-04-02T00:49:57.901Z,0
2018-04-02T00:50:57.622Z,0
2018-04-02T00:51:58.092Z,0
2018-04-02T00:52:58.074Z,0
2018-04-02T00:53:57.790Z,0
2018-04-02T00:54:57.759Z,0
2018-04-02T00:55:57.738Z,0
2018-04-02T00:56:57.958Z,0
2018-04-02T00:57:57.676Z,0
2018-04-02T00:58:57.653Z,0
2018-04-02T00:59:57.619Z,0
2018-04-02T01:00:57.845Z,0
2018-04-02T01:01:57.813Z,0
2018-04-02T01:02:57.293Z,0
2018-04-02T01:03:57.508Z,0
2018-04-02T01:04:57.732Z,0
2018-04-02T01:05:57.709Z,0
2018-04-02T01:06:57.682Z,0
2018-04-02T01:07:57.419Z,0
2018-04-02T01:08:57.381Z,0
2018-04-02T01:09:57.600Z,0
2018-04-02T01:10:57.315Z,0
2018-04-02T01:11:57.290Z,0
2018-04-02T01:12:57.930Z,0
2018-04-02T01:13:57.483Z,0
2018-04-02T01:14:57.460Z,0
2018-04-02T01:15:57.432Z,0
2018-04-02T01:16:57.398Z,0
2018-04-02T01:17:57.366Z,0
2018-04-02T01:18:57.348Z,0
2018-04-02T01:19:57.310Z,0
2018-04-02T01:20:57.292Z,0
2018-04-02T01:21:57.017Z,0
2018-04-02T01:22:56.993Z,0
2018-04-02T01:23:56.710Z,0
2018-04-02T01:24:57.178Z,0
2018-04-02T01:25:57.158Z,0
2018-04-02T01:26:57.135Z,0
2018-04-02T01:27:56.599Z,0
2018-04-02T01:28:56.815Z,0
2018-04-02T01:29:56.803Z,0
2018-04-02T01:30:57.076Z,0
2018-04-02T01:31:56.490Z,0
2018-04-02T01:32:56.728Z,0
2018-04-02T01:33:56.696Z,0
2018-04-02T01:34:56.696Z,0
2018-04-02T01:35:56.886Z,0
2018-04-02T01:36:56.607Z,0
2018-04-02T01:37:56.826Z,0
2018-04-02T01:38:56.781Z,0
2018-04-02T01:39:56.765Z,0
2018-04-02T01:40:56.746Z,0
2018-04-02T01:41:56.462Z,0
2018-04-02T01:42:56.678Z,0
2018-04-02T01:43:56.401Z,0
2018-04-02T01:44:56.133Z,0
2018-04-02T01:45:56.347Z,0
2018-04-02T01:46:56.314Z,0
2018-04-02T01:47:56.094Z,0
2018-04-02T01:48:57.520Z,0
2018-04-02T01:49:55.987Z,0
2018-04-02T01:50:56.208Z,0
2018-04-02T01:51:55.679Z,0
2018-04-02T01:52:56.404Z,0
2018-04-02T01:53:56.122Z,0
2018-04-02T01:54:56.099Z,0
2018-04-02T01:55:56.071Z,0
2018-04-02T01:56:55.872Z,0
2018-04-02T01:57:56.258Z,0
2018-04-02T01:58:56.232Z,0
2018-04-02T01:59:56.213Z,0
2018-04-02T02:00:55.930Z,0
2018-04-02T02:01:56.158Z,0
2018-04-02T02:02:56.127Z,0
2018-04-02T02:03:55.840Z,0
2018-04-02T02:04:55.562Z,0
2018-04-02T02:05:56.040Z,0
2018-04-02T02:06:55.756Z,0
2018-04-02T02:07:55.728Z,0
2018-04-02T02:08:55.696Z,0
2018-04-02T02:09:55.920Z,0
2018-04-02T02:10:55.644Z,0
2018-04-02T02:11:55.617Z,0
2018-04-02T02:12:55.592Z,0
2018-04-02T02:13:55.900Z,0
2018-04-02T02:14:55.282Z,0
2018-04-02T02:15:55.506Z,0
2018-04-02T02:16:55.721Z,0
2018-04-02T02:17:55.451Z,0
2018-04-02T02:18:55.666Z,0
2018-04-02T02:19:55.141Z,0
2018-04-02T02:20:55.620Z,0
2018-04-02T02:21:55.326Z,0
2018-04-02T02:22:55.560Z,0
2018-04-02T02:23:55.027Z,0
2018-04-02T02:24:55.515Z,0
2018-04-02T02:25:55.215Z,0
2018-04-02T02:26:55.185Z,0
2018-04-02T02:27:55.411Z,0
2018-04-02T02:28:54.895Z,0
2018-04-02T02:29:55.345Z,0
2018-04-02T02:30:55.087Z,0
2018-04-02T02:31:55.049Z,0
2018-04-02T02:32:55.036Z,0
2018-04-02T02:33:54.986Z,0
2018-04-02T02:34:54.730Z,0
2018-04-02T02:35:55.176Z,0
2018-04-02T02:36:55.155Z,0
2018-04-02T02:37:55.135Z,0
2018-04-02T02:38:54.840Z,0
2018-04-02T02:39:54.811Z,0
2018-04-02T02:40:54.788Z,0
2018-04-02T02:41:55.017Z,0
2018-04-02T02:42:54.993Z,0
2018-04-02T02:43:54.952Z,0
2018-04-02T02:44:54.915Z,0
2018-04-02T02:45:54.895Z,0
2018-04-02T02:46:54.880Z,0
2018-04-02T02:47:54.583Z,0
2018-04-02T02:48:54.816Z,0
2018-04-02T02:49:54.288Z,0
2018-04-02T02:50:54.512Z,0
2018-04-02T02:51:54.718Z,0
2018-04-02T02:52:54.430Z,0
2018-04-02T02:53:54.428Z,0
2018-04-02T02:54:54.379Z,0
2018-04-02T02:55:54.597Z,0
2018-04-02T02:56:54.579Z,0
2018-04-02T02:57:54.558Z,0
2018-04-02T02:58:54.268Z,0
2018-04-02T02:59:54.491Z,0
2018-04-02T03:00:54.460Z,0
2018-04-02T03:01:54.420Z,0
2018-04-02T03:02:53.664Z,0
2018-04-02T03:03:54.363Z,0
2018-04-02T03:04:54.079Z,0
2018-04-02T03:05:54.318Z,0
2018-04-02T03:06:54.036Z,0
2018-04-02T03:07:53.748Z,0
2018-04-02T03:08:53.971Z,0
2018-04-02T03:09:54.179Z,0
2018-04-02T03:10:54.154Z,0
2018-04-02T03:11:53.880Z,0
2018-04-02T03:12:54.101Z,0
2018-04-02T03:13:53.813Z,0
2018-04-02T03:14:54.039Z,0
2018-04-02T03:15:54.016Z,0
2018-04-02T03:16:53.734Z,0
2018-04-02T03:17:53.948Z,0
2018-04-02T03:18:53.677Z,0
2018-04-02T03:19:53.641Z,0
2018-04-02T03:20:53.875Z,0
2018-04-02T03:21:53.823Z,0
2018-04-02T03:22:53.808Z,0
2018-04-02T03:23:53.526Z,0
2018-04-02T03:24:53.743Z,0
2018-04-02T03:25:53.214Z,0
2018-04-02T03:26:53.693Z,0
2018-04-02T03:27:53.665Z,0
2018-04-02T03:28:53.621Z,0
2018-04-02T03:29:53.102Z,0
2018-04-02T03:30:53.335Z,0
2018-04-02T03:31:53.557Z,0
2018-04-02T03:32:53.255Z,0
2018-04-02T03:33:52.978Z,0
2018-04-02T03:34:53.469Z,0
2018-04-02T03:35:53.417Z,0
2018-04-02T03:36:53.389Z,0
2018-04-02T03:37:53.360Z,0
2018-04-02T03:38:53.336Z,0
2018-04-02T03:39:53.308Z,0
2018-04-02T03:40:53.268Z,0
2018-04-02T03:41:52.996Z,0
2018-04-02T03:42:53.219Z,0
2018-04-02T03:43:53.182Z,0
2018-04-02T03:44:53.158Z,0
2018-04-02T03:45:53.226Z,0
2018-04-02T03:46:52.843Z,0
2018-04-02T03:47:53.071Z,0
2018-04-02T03:48:52.790Z,0
2018-04-02T03:49:52.759Z,0
2018-04-02T03:50:52.979Z,0
2018-04-02T03:51:52.947Z,0
2018-04-02T03:52:52.678Z,0
2018-04-02T03:53:52.888Z,0
2018-04-02T03:54:52.856Z,0
2018-04-02T03:55:52.931Z,0
2018-04-02T03:56:52.807Z,0
2018-04-02T03:57:52.531Z,0
2018-04-02T03:58:52.745Z,0
2018-04-02T03:59:52.472Z,0
2018-04-02T04:00:52.701Z,0
2018-04-02T04:01:52.668Z,0
2018-04-02T04:02:52.624Z,0
2018-04-02T04:03:52.352Z,0
2018-04-02T04:04:52.570Z,0
2018-04-02T04:05:52.544Z,0
2018-04-02T04:06:52.260Z,0
2018-04-02T04:07:52.479Z,0
2018-04-02T04:08:52.444Z,0
2018-04-02T04:09:52.168Z,0
2018-04-02T04:10:52.386Z,0
2018-04-02T04:11:52.608Z,0
2018-04-02T04:12:52.329Z,0
2018-04-02T04:13:52.320Z,0
2018-04-02T04:14:52.294Z,0
2018-04-02T04:15:51.790Z,0
2018-04-02T04:16:52.214Z,0
2018-04-02T04:17:51.951Z,0
2018-04-02T04:18:52.163Z,0
2018-04-02T04:19:51.882Z,0
2018-04-02T04:20:51.849Z,0
2018-04-02T04:21:51.816Z,0
2018-04-02T04:22:51.783Z,0
2018-04-02T04:23:51.515Z,0
2018-04-02T04:24:51.979Z,0
2018-04-02T04:25:51.950Z,0
2018-04-02T04:26:51.683Z,0
2018-04-02T04:27:51.643Z,0
2018-04-02T04:28:51.621Z,0
2018-04-02T04:29:51.334Z,0
2018-04-02T04:30:51.797Z,0
2018-04-02T04:31:51.278Z,0
2018-04-02T04:32:51.750Z,0
2018-04-02T04:33:51.475Z,0
2018-04-02T04:34:51.680Z,0
2018-04-02T04:35:51.406Z,0
2018-04-02T04:36:51.388Z,0
2018-04-02T04:37:51.599Z,0
2018-04-02T04:38:51.326Z,0
2018-04-02T04:39:51.041Z,0
2018-04-02T04:40:51.016Z,0
2018-04-02T04:41:51.485Z,0
2018-04-02T04:42:51.512Z,0
2018-04-02T04:43:51.166Z,0
2018-04-02T04:44:51.150Z,0
2018-04-02T04:45:51.372Z,0
2018-04-02T04:46:51.092Z,0
2018-04-02T04:47:51.314Z,0
2018-04-02T04:48:51.031Z,0
2018-04-02T04:49:51.012Z,0
2018-04-02T04:50:51.220Z,0
2018-04-02T04:51:51.198Z,0
2018-04-02T04:52:51.161Z,5
2018-04-02T04:53:50.886Z,5
2018-04-02T04:54:51.119Z,5
2018-04-02T04:55:51.078Z,5
2018-04-02T04:56:51.055Z,5
2018-04-02T04:57:51.017Z,10
2018-04-02T04:58:51.001Z,10
2018-04-02T04:59:50.718Z,10
2018-04-02T05:00:50.698Z,15
2018-04-02T05:01:50.413Z,15
2018-04-02T05:02:50.873Z,15
2018-04-02T05:03:50.851Z,15
2018-04-02T05:04:50.808Z,20
2018-04-02T05:05:50.796Z,20
2018-04-02T05:06:50.774Z,20
2018-04-02T05:07:50.735Z,25
2018-04-02T05:08:50.453Z,25
2018-04-02T05:09:50.174Z,30
2018-04-02T05:10:50.412Z,30
2018-04-02T05:11:50.615Z,35
2018-04-02T05:12:50.584Z,40
2018-04-02T05:13:50.557Z,40
2018-04-02T05:14:50.531Z,45
2018-04-02T05:15:50.498Z,45
2018-04-02T05:16:50.219Z,50
2018-04-02T05:17:50.498Z,55
2018-04-02T05:18:50.167Z,55
2018-04-02T05:19:50.134Z,60
2018-04-02T05:20:50.357Z,65
2018-04-02T05:21:50.073Z,65
2018-04-02T05:22:50.456Z,65
2018-04-02T05:23:49.772Z,65
2018-04-02T05:24:50.254Z,70
2018-04-02T05:25:49.977Z,75
2018-04-02T05:26:50.196Z,80
2018-04-02T05:27:50.156Z,85
2018-04-02T05:28:49.885Z,85
2018-04-02T05:29:49.351Z,90
2018-04-02T05:30:50.072Z,95
2018-04-02T05:31:50.031Z,100
2018-04-02T05:32:49.263Z,105
2018-04-02T05:33:49.972Z,110
2018-04-02T05:34:49.946Z,115
2018-04-02T05:35:49.680Z,120
2018-04-02T05:36:49.890Z,120
2018-04-02T05:37:49.642Z,125
2018-04-02T05:38:49.633Z,130
2018-04-02T05:39:49.690Z,135
2018-04-02T05:40:49.819Z,135
2018-04-02T05:41:49.491Z,140
2018-04-02T05:42:49.727Z,145
2018-04-02T05:43:49.687Z,145
2018-04-02T05:44:49.427Z,150
2018-04-02T05:45:49.630Z,150
2018-04-02T05:46:49.353Z,155
2018-04-02T05:47:49.580Z,155
2018-04-02T05:48:49.044Z,160
2018-04-02T05:49:49.508Z,165
2018-04-02T05:50:49.237Z,165
2018-04-02T05:51:49.208Z,170
2018-04-02T05:52:49.174Z,175
2018-04-02T05:53:49.152Z,175
2018-04-02T05:54:49.371Z,175
2018-04-02T05:55:49.352Z,180
2018-04-02T05:56:49.312Z,180
2018-04-02T05:57:49.336Z,185
2018-04-02T05:58:48.510Z,185
2018-04-02T05:59:49.396Z,185
2018-04-02T06:00:48.958Z,185
2018-04-02T06:01:48.670Z,195
2018-04-02T06:02:48.903Z,195
2018-04-02T06:03:48.864Z,195
2018-04-02T06:04:49.091Z,200
2018-04-02T06:05:48.317Z,205
2018-04-02T06:06:49.074Z,205
2018-04-02T06:07:48.754Z,205
2018-04-02T06:08:48.475Z,205
2018-04-02T06:09:49.000Z,215
2018-04-02T06:10:48.916Z,215
2018-04-02T06:11:48.643Z,220
2018-04-02T06:12:48.854Z,235
2018-04-02T06:13:48.863Z,250
2018-04-02T06:14:48.848Z,270
2018-04-02T06:15:48.784Z,285
2018-04-02T06:16:48.607Z,305
2018-04-02T06:17:48.721Z,325
2018-04-02T06:18:48.746Z,345
2018-04-02T06:19:48.415Z,355
2018-04-02T06:20:48.634Z,355
2018-04-02T06:21:48.354Z,345
2018-04-02T06:22:48.584Z,345
2018-04-02T06:23:48.056Z,345
2018-04-02T06:24:48.526Z,340
2018-04-02T06:25:48.507Z,345
2018-04-02T06:26:48.225Z,345
2018-04-02T06:27:48.440Z,340
2018-04-02T06:28:48.418Z,340
2018-04-02T06:29:47.892Z,335
2018-04-02T06:30:48.360Z,330
2018-04-02T06:31:48.179Z,330
2018-04-02T06:32:48.060Z,330
2018-04-02T06:33:48.034Z,335
2018-04-02T06:34:48.010Z,345
2018-04-02T06:35:48.228Z,350
2018-04-02T06:36:47.946Z,355
2018-04-02T06:37:48.194Z,360
2018-04-02T06:38:48.141Z,360
2018-04-02T06:39:47.918Z,375
2018-04-02T06:40:47.604Z,375
2018-04-02T06:41:48.066Z,385
2018-04-02T06:42:47.796Z,385
2018-04-02T06:43:47.766Z,385
2018-04-02T06:44:47.497Z,385
2018-04-02T06:45:47.715Z,390
2018-04-02T06:46:47.694Z,390
2018-04-02T06:47:47.910Z,390
2018-04-02T06:48:47.900Z,390
2018-04-02T06:49:47.861Z,405
2018-04-02T06:50:47.845Z,415
2018-04-02T06:51:47.558Z,425
2018-04-02T06:52:47.037Z,440
2018-04-02T06:53:47.754Z,435
2018-04-02T06:54:47.244Z,435
2018-04-02T06:55:46.962Z,430
2018-04-02T06:56:47.435Z,430
2018-04-02T06:57:47.414Z,435
2018-04-02T06:58:47.381Z,440
2018-04-02T06:59:47.104Z,450
2018-04-02T07:00:47.076Z,460
2018-04-02T07:01:47.302Z,465
2018-04-02T07:02:47.298Z,470
2018-04-02T07:03:47.247Z,475
2018-04-02T07:04:47.224Z,475
2018-04-02T07:05:47.452Z,480
2018-04-02T07:06:47.199Z,480
2018-04-02T07:07:47.443Z,480
2018-04-02T07:08:47.380Z,475
2018-04-02T07:09:47.355Z,475
2018-04-02T07:10:47.080Z,470
2018-04-02T07:11:46.804Z,465
2018-04-02T07:12:47.293Z,455
2018-04-02T07:13:47.253Z,445
2018-04-02T07:14:46.978Z,450
2018-04-02T07:15:46.958Z,450
2018-04-02T07:16:46.929Z,450
2018-04-02T07:17:46.907Z,445
2018-04-02T07:18:46.890Z,435
2018-04-02T07:19:47.101Z,415
2018-04-02T07:20:47.076Z,410
2018-04-02T07:21:47.064Z,420
2018-04-02T07:22:46.797Z,465
2018-04-02T07:23:46.773Z,510
2018-04-02T07:24:46.986Z,550
2018-04-02T07:25:46.716Z,570
2018-04-02T07:26:46.688Z,610
2018-04-02T07:27:46.418Z,635
2018-04-02T07:28:46.638Z,700
2018-04-02T07:29:46.852Z,730
2018-04-02T07:30:46.589Z,765
2018-04-02T07:31:46.316Z,770
2018-04-02T07:32:46.786Z,750
2018-04-02T07:33:46.762Z,720
2018-04-02T07:34:46.503Z,680
2018-04-02T07:35:46.730Z,630
2018-04-02T07:36:46.760Z,620
2018-04-02T07:37:46.680Z,640
2018-04-02T07:38:46.403Z,685
2018-04-02T07:39:46.650Z,710
2018-04-02T07:40:46.372Z,715
2018-04-02T07:41:46.073Z,700
2018-04-02T07:42:46.558Z,675
2018-04-02T07:43:46.532Z,660
2018-04-02T07:44:46.507Z,660
2018-04-02T07:45:46.486Z,660
2018-04-02T07:46:46.206Z,665
2018-04-02T07:47:46.185Z,650
2018-04-02T07:48:45.914Z,670
2018-04-02T07:49:46.387Z,710
2018-04-02T07:50:46.561Z,730
2018-04-02T07:51:46.097Z,735
2018-04-02T07:52:46.096Z,735
2018-04-02T07:53:46.319Z,735
2018-04-02T07:54:46.291Z,750
2018-04-02T07:55:46.264Z,765
2018-04-02T07:56:45.986Z,765
2018-04-02T07:57:45.961Z,775
2018-04-02T07:58:45.691Z,785
2018-04-02T07:59:46.179Z,790
2018-04-02T08:00:46.144Z,795
2018-04-02T08:01:46.138Z,805
2018-04-02T08:02:46.366Z,815
2018-04-02T08:03:45.584Z,825
2018-04-02T08:04:45.574Z,830
2018-04-02T08:05:46.154Z,840
2018-04-02T08:06:46.025Z,860
2018-04-02T08:07:45.751Z,880
2018-04-02T08:08:45.533Z,885
2018-04-02T08:09:45.713Z,875
2018-04-02T08:10:45.938Z,860
2018-04-02T08:11:45.920Z,835
2018-04-02T08:12:45.667Z,810
2018-04-02T08:13:45.378Z,810
2018-04-02T08:14:45.862Z,805
2018-04-02T08:15:45.902Z,790
2018-04-02T08:16:45.565Z,770
2018-04-02T08:17:45.537Z,765
2018-04-02T08:18:45.769Z,220
2018-04-02T08:19:45.745Z,755
2018-04-02T08:20:45.484Z,780
2018-04-02T08:21:45.211Z,710
2018-04-02T08:22:45.690Z,795
2018-04-02T08:23:45.664Z,795
2018-04-02T08:24:45.648Z,805
2018-04-02T08:25:45.475Z,845
2018-04-02T08:26:45.116Z,895
2018-04-02T08:27:45.587Z,955
2018-04-02T08:28:45.128Z,995
2018-04-02T08:29:45.545Z,930
2018-04-02T08:30:45.525Z,940
2018-04-02T08:31:45.004Z,905
2018-04-02T08:32:45.682Z,885
2018-04-02T08:33:45.470Z,855
2018-04-02T08:34:45.444Z,850
2018-04-02T08:35:45.177Z,850
2018-04-02T08:36:45.408Z,855
2018-04-02T08:37:45.138Z,840
2018-04-02T08:38:45.589Z,815
2018-04-02T08:39:45.349Z,820
2018-04-02T08:40:45.083Z,835
2018-04-02T08:41:45.306Z,875
2018-04-02T08:42:45.034Z,895
2018-04-02T08:43:45.022Z,925
2018-04-02T08:44:44.997Z,970
2018-04-02T08:45:44.730Z,995
2018-04-02T08:46:45.220Z,1010
2018-04-02T08:47:45.185Z,1010
2018-04-02T08:48:44.916Z,975
2018-04-02T08:49:44.670Z,910
2018-04-02T08:50:45.128Z,900
2018-04-02T08:51:45.111Z,940
2018-04-02T08:52:44.592Z,1000
2018-04-02T08:53:44.820Z,995
2018-04-02T08:54:45.061Z,995
2018-04-02T08:55:44.788Z,985
2018-04-02T08:56:44.769Z,1000
2018-04-02T08:57:44.742Z,1065
2018-04-02T08:58:44.732Z,1080
2018-04-02T08:59:44.959Z,1040
2018-04-02T09:00:44.835Z,990
2018-04-02T09:01:44.910Z,955
2018-04-02T09:02:44.657Z,975
2018-04-02T09:03:44.900Z,1020
2018-04-02T09:04:44.871Z,1040
2018-04-02T09:05:44.861Z,1035
2018-04-02T09:06:44.585Z,1020
2018-04-02T09:07:44.811Z,1030
2018-04-02T09:08:44.300Z,1055
2018-04-02T09:09:44.795Z,1040
2018-04-02T09:10:44.752Z,1040
2018-04-02T09:11:44.495Z,1015
2018-04-02T09:12:44.476Z,1010
2018-04-02T09:13:44.453Z,1005
2018-04-02T09:14:44.709Z,1000
2018-04-02T09:15:44.666Z,995
2018-04-02T09:16:44.662Z,990
2018-04-02T09:17:44.641Z,985
2018-04-02T09:18:44.120Z,985
2018-04-02T09:19:44.620Z,1005
2018-04-02T09:20:44.323Z,1015
2018-04-02T09:21:44.570Z,1010
2018-04-02T09:22:44.545Z,1015
2018-04-02T09:23:44.283Z,1030
2018-04-02T09:24:44.285Z,1035
2018-04-02T09:25:44.267Z,1035
2018-04-02T09:26:44.482Z,1035
2018-04-02T09:27:44.214Z,1070
2018-04-02T09:28:44.203Z,1090
2018-04-02T09:29:44.178Z,1090
2018-04-02T09:30:44.415Z,1090
2018-04-02T09:31:43.643Z,1130
2018-04-02T09:32:44.374Z,1150
2018-04-02T09:33:44.379Z,1160
2018-04-02T09:34:43.848Z,1175
2018-04-02T09:35:44.076Z,1180
2018-04-02T09:36:44.527Z,1140
2018-04-02T09:37:44.050Z,1130
2018-04-02T09:38:44.028Z,1130
2018-04-02T09:39:44.011Z,1110
2018-04-02T09:40:44.244Z,1095
2018-04-02T09:41:43.748Z,1065
2018-04-02T09:42:43.962Z,1055
2018-04-02T09:43:43.708Z,1055
2018-04-02T09:44:44.190Z,1060
2018-04-02T09:45:44.168Z,1070
2018-04-02T09:46:43.655Z,1060
2018-04-02T09:47:44.252Z,1035
2018-04-02T09:48:43.881Z,1020
2018-04-02T09:49:44.113Z,1000
2018-04-02T09:50:43.841Z,985
2018-04-02T09:51:43.834Z,980
2018-04-02T09:52:44.058Z,975
2018-04-02T09:53:44.057Z,995
2018-04-02T09:54:44.019Z,1040
2018-04-02T09:55:43.760Z,1070
2018-04-02T09:56:43.494Z,1120
2018-04-02T09:57:43.977Z,1175
2018-04-02T09:58:43.968Z,1190
2018-04-02T09:59:43.451Z,1195
2018-04-02T10:00:43.694Z,1150
2018-04-02T10:01:43.673Z,1170
2018-04-02T10:02:43.897Z,1225
2018-04-02T10:03:43.632Z,1240
2018-04-02T10:04:44.359Z,1225
2018-04-02T10:05:43.863Z,1170
2018-04-02T10:06:43.388Z,1145
2018-04-02T10:07:43.573Z,1185
2018-04-02T10:08:43.817Z,1170
2018-04-02T10:09:43.542Z,1070
2018-04-02T10:10:43.911Z,1025
2018-04-02T10:11:43.767Z,1040
2018-04-02T10:12:44.193Z,1015
2018-04-02T10:13:43.240Z,1010
2018-04-02T10:14:43.484Z,1070
2018-04-02T10:15:43.656Z,1105
2018-04-02T10:16:44.245Z,1105
2018-04-02T10:17:44.295Z,1080
2018-04-02T10:18:43.666Z,1045
2018-04-02T10:19:43.417Z,1020
2018-04-02T10:20:43.207Z,1015
2018-04-02T10:21:43.368Z,1020
2018-04-02T10:22:43.601Z,1035
2018-04-02T10:23:43.346Z,1080
2018-04-02T10:24:43.569Z,1100
2018-04-02T10:25:43.310Z,1040
2018-04-02T10:26:43.546Z,995
2018-04-02T10:27:43.280Z,970
2018-04-02T10:28:43.014Z,980
2018-04-02T10:29:43.536Z,980
2018-04-02T10:30:43.489Z,960
2018-04-02T10:31:43.479Z,935
2018-04-02T10:32:43.250Z,935
2018-04-02T10:33:43.188Z,970
2018-04-02T10:34:43.420Z,975
2018-04-02T10:35:43.407Z,975
2018-04-02T10:36:43.629Z,970
2018-04-02T10:37:43.380Z,970
2018-04-02T10:38:43.111Z,990
2018-04-02T10:39:42.603Z,1020
2018-04-02T10:40:43.393Z,1045
2018-04-02T10:41:43.075Z,1060
2018-04-02T10:42:43.301Z,1050
2018-04-02T10:43:43.044Z,995
2018-04-02T10:44:42.770Z,1030
2018-04-02T10:45:43.004Z,1080
2018-04-02T10:46:42.986Z,1110
2018-04-02T10:47:43.225Z,1135
2018-04-02T10:48:42.816Z,1155
2018-04-02T10:49:43.200Z,1200
2018-04-02T10:50:42.935Z,1255
2018-04-02T10:51:42.955Z,1275
2018-04-02T10:52:43.156Z,1295
2018-04-02T10:53:42.880Z,1285
2018-04-02T10:54:43.171Z,1225
2018-04-02T10:55:43.111Z,1200
2018-04-02T10:56:42.850Z,1200
2018-04-02T10:57:43.083Z,1200
2018-04-02T10:58:42.563Z,1220
2018-04-02T10:59:42.745Z,1230
2018-04-02T11:00:42.781Z,1205
2018-04-02T11:01:42.812Z,1155
2018-04-02T11:02:42.765Z,1130
2018-04-02T11:03:42.743Z,1135
2018-04-02T11:04:42.984Z,1150
2018-04-02T11:05:42.832Z,1180
2018-04-02T11:06:42.952Z,1180
2018-04-02T11:07:42.446Z,1180
2018-04-02T11:08:42.426Z,1215
2018-04-02T11:09:42.656Z,1230
2018-04-02T11:10:42.895Z,1270
2018-04-02T11:11:42.644Z,1330
2018-04-02T11:12:42.923Z,1350
2018-04-02T11:13:42.610Z,1340
2018-04-02T11:14:42.840Z,1310
2018-04-02T11:15:42.839Z,1295
2018-04-02T11:16:42.885Z,1300
2018-04-02T11:17:42.567Z,1310
2018-04-02T11:18:42.324Z,1315
2018-04-02T11:19:42.782Z,1305
2018-04-02T11:20:42.774Z,1305
2018-04-02T11:21:42.755Z,1275
2018-04-02T11:22:42.266Z,1235
2018-04-02T11:23:42.779Z,1215
2018-04-02T11:24:42.730Z,1220
2018-04-02T11:25:42.469Z,1230
2018-04-02T11:26:42.197Z,1250
2018-04-02T11:27:42.671Z,1265
2018-04-02T11:28:42.417Z,1270
2018-04-02T11:29:42.653Z,1265
2018-04-02T11:30:42.643Z,1255
2018-04-02T11:31:42.384Z,1220
2018-04-02T11:32:42.378Z,1220
2018-04-02T11:33:42.612Z,1230
2018-04-02T11:34:42.599Z,1205
2018-04-02T11:35:42.341Z,1150
2018-04-02T11:36:42.568Z,1130
2018-04-02T11:37:42.556Z,1135
2018-04-02T11:38:42.047Z,1150
2018-04-02T11:39:42.295Z,1125
2018-04-02T11:40:42.537Z,1115
2018-04-02T11:41:42.503Z,1150
2018-04-02T11:42:42.444Z,1205
2018-04-02T11:43:42.486Z,1295
2018-04-02T11:44:42.228Z,1365
2018-04-02T11:45:42.462Z,1350
2018-04-02T11:46:42.437Z,1275
2018-04-02T11:47:42.187Z,1170
2018-04-02T11:48:42.423Z,1080
2018-04-02T11:49:41.910Z,1025
2018-04-02T11:50:41.897Z,1010
2018-04-02T11:51:42.136Z,1035
2018-04-02T11:52:42.125Z,1100
2018-04-02T11:53:42.362Z,1130
2018-04-02T11:54:42.093Z,1160
2018-04-02T11:55:42.096Z,1170
2018-04-02T11:56:42.323Z,1160
2018-04-02T11:57:41.815Z,1130
2018-04-02T11:58:42.068Z,1050
2018-04-02T11:59:42.299Z,975
2018-04-02T12:00:42.322Z,955
2018-04-02T12:01:42.023Z,975
2018-04-02T12:02:41.764Z,1025
2018-04-02T12:03:42.243Z,1095
2018-04-02T12:04:41.979Z,1160
2018-04-02T12:05:42.221Z,1180
2018-04-02T12:06:41.940Z,1195
2018-04-02T12:07:41.688Z,1200
2018-04-02T12:08:41.937Z,1205
2018-04-02T12:09:41.915Z,1195
2018-04-02T12:10:41.645Z,1155
2018-04-02T12:11:42.152Z,1080
2018-04-02T12:12:42.122Z,1045
2018-04-02T12:13:42.111Z,1045
2018-04-02T12:14:42.100Z,1060
2018-04-02T12:15:42.097Z,1075
2018-04-02T12:16:41.828Z,1100
2018-04-02T12:17:41.576Z,1145
2018-04-02T12:18:41.558Z,1150
2018-04-02T12:19:42.078Z,1160
2018-04-02T12:20:41.547Z,1145
2018-04-02T12:21:42.122Z,1140
2018-04-02T12:22:41.760Z,1140
2018-04-02T12:23:41.738Z,1150
2018-04-02T12:24:41.978Z,1170
2018-04-02T12:25:41.989Z,1190
2018-04-02T12:26:41.701Z,1165
2018-04-02T12:27:42.071Z,1130
2018-04-02T12:28:41.676Z,1100
2018-04-02T12:29:41.672Z,1040
2018-04-02T12:30:41.665Z,1005
2018-04-02T12:31:41.900Z,1000
2018-04-02T12:32:41.874Z,1005
2018-04-02T12:33:41.756Z,1035
2018-04-02T12:34:41.624Z,1105
2018-04-02T12:35:41.846Z,1175
2018-04-02T12:36:41.633Z,1225
2018-04-02T12:37:41.321Z,1250
2018-04-02T12:38:41.861Z,1265
2018-04-02T12:39:41.795Z,1275
2018-04-02T12:40:41.556Z,1220
2018-04-02T12:41:41.516Z,1115
2018-04-02T12:42:41.505Z,1090
2018-04-02T12:43:41.815Z,1195
2018-04-02T12:44:42.857Z,1170
2018-04-02T12:45:41.722Z,1095
2018-04-02T12:46:41.698Z,1015
2018-04-02T12:47:41.695Z,940
2018-04-02T12:48:41.181Z,875
2018-04-02T12:49:41.677Z,855
2018-04-02T12:50:41.656Z,855
2018-04-02T12:51:41.388Z,885
2018-04-02T12:52:41.391Z,925
2018-04-02T12:53:41.143Z,1010
2018-04-02T12:54:41.608Z,1105
2018-04-02T12:55:41.095Z,1140
2018-04-02T12:56:41.355Z,1145
2018-04-02T12:57:41.568Z,1140
2018-04-02T12:58:42.640Z,1125
2018-04-02T12:59:41.424Z,1120
2018-04-02T13:00:40.813Z,1110
2018-04-02T13:01:41.523Z,1095
2018-04-02T13:02:41.260Z,1040
2018-04-02T13:03:41.002Z,1005
2018-04-02T13:04:41.770Z,905
2018-04-02T13:05:40.967Z,900
2018-04-02T13:06:41.199Z,910
2018-04-02T13:07:41.440Z,915
2018-04-02T13:08:40.691Z,945
2018-04-02T13:09:40.671Z,965
2018-04-02T13:10:41.145Z,955
2018-04-02T13:11:40.895Z,975
2018-04-02T13:12:41.130Z,955
2018-04-02T13:13:41.146Z,885
2018-04-02T13:14:41.112Z,840
2018-04-02T13:15:41.097Z,840
2018-04-02T13:16:41.333Z,860
2018-04-02T13:17:41.083Z,855
2018-04-02T13:18:41.058Z,865
2018-04-02T13:19:41.285Z,905
2018-04-02T13:20:41.274Z,940
2018-04-02T13:21:41.313Z,1015
2018-04-02T13:22:40.999Z,1115
2018-04-02T13:23:41.232Z,1140
2018-04-02T13:24:41.234Z,1095
2018-04-02T13:25:40.716Z,1085
2018-04-02T13:26:40.715Z,1060
2018-04-02T13:27:41.196Z,1010
2018-04-02T13:28:41.278Z,955
2018-04-02T13:29:40.667Z,910
2018-04-02T13:30:41.155Z,870
2018-04-02T13:31:41.147Z,830
2018-04-02T13:32:40.875Z,795
2018-04-02T13:33:41.118Z,745
2018-04-02T13:34:40.853Z,730
2018-04-02T13:35:40.838Z,715
2018-04-02T13:36:40.581Z,710
2018-04-02T13:37:40.809Z,710
2018-04-02T13:38:41.054Z,700
2018-04-02T13:39:40.858Z,715
2018-04-02T13:40:40.802Z,715
2018-04-02T13:41:41.012Z,725
2018-04-02T13:42:40.761Z,765
2018-04-02T13:43:40.488Z,790
2018-04-02T13:44:40.974Z,795
2018-04-02T13:45:40.461Z,795
2018-04-02T13:46:40.458Z,795
2018-04-02T13:47:40.934Z,795
2018-04-02T13:48:40.918Z,810
2018-04-02T13:49:40.654Z,800
2018-04-02T13:50:40.642Z,800
2018-04-02T13:51:40.637Z,785
2018-04-02T13:52:40.864Z,770
2018-04-02T13:53:40.850Z,790
2018-04-02T13:54:40.584Z,815
2018-04-02T13:55:40.872Z,830
2018-04-02T13:56:40.808Z,850
2018-04-02T13:57:40.044Z,880
2018-04-02T13:58:40.781Z,885
2018-04-02T13:59:40.274Z,800